Time;durP1;ratioP1;P1;durP2;ratioP2;P2;SDS_P1;SDS_P2;PMS_P1;PMS_P2;Temp;Humidity;BMP_temperature;BMP_pressure;BME280_temperature;BME280_humidity;BME280_pressure;Samples;Min_cycle;Max_cycle;Signal;HPM_P1;HPM_P2
2021/05/31 00:01:10;;;;;;;2.60;2.40;;;;;;;;;;5071955;28;20455;-67
2021/05/31 00:03:35;;;;;;;3.35;2.67;;;;;;;;;;5070586;28;20020;-67
2021/05/31 00:06:01;;;;;;;3.22;2.35;;;;;;;;;;5071884;28;20168;-67
2021/05/31 00:08:26;;;;;;;4.28;2.50;;;;;;;;;;5066721;28;20024;-67
2021/05/31 00:10:51;;;;;;;3.25;2.50;;;;;;;;;;5067534;28;20025;-67
2021/05/31 00:13:17;;;;;;;6.38;2.80;;;;;;;;;;5071901;28;20116;-67
2021/05/31 00:15:42;;;;;;;4.00;3.00;;;;;;;;;;5071431;28;20029;-66
2021/05/31 00:18:08;;;;;;;3.08;2.70;;;;;;;;;;5067661;28;20020;-66
2021/05/31 00:20:33;;;;;;;3.22;2.70;;;;;;;;;;5071941;28;20077;-67
2021/05/31 00:22:58;;;;;;;3.60;2.83;;;;;;;;;;5071416;28;20104;-66
2021/05/31 00:25:24;;;;;;;3.20;2.80;;;;;;;;;;5071632;28;20104;-69
2021/05/31 00:27:50;;;;;;;3.72;3.20;;;;;;;;;;5066046;28;20095;-67
2021/05/31 00:30:15;;;;;;;4.28;2.88;;;;;;;;;;5068422;28;20028;-67
2021/05/31 00:32:40;;;;;;;3.28;2.97;;;;;;;;;;5071716;28;20200;-67
2021/05/31 00:35:07;;;;;;;2.80;2.50;;;;;;;;;;5074400;28;20464;-67
2021/05/31 00:37:32;;;;;;;3.97;3.25;;;;;;;;;;5071047;28;20516;-66
2021/05/31 00:39:57;;;;;;;5.20;4.00;;;;;;;;;;5107921;28;20107;-66
2021/05/31 00:42:23;;;;;;;4.63;3.80;;;;;;;;;;5073611;28;20028;-66
2021/05/31 00:44:48;;;;;;;3.92;3.60;;;;;;;;;;5076065;28;20024;-67
2021/05/31 00:47:14;;;;;;;4.97;4.05;;;;;;;;;;5079165;28;20031;-66
2021/05/31 00:49:39;;;;;;;7.35;4.93;;;;;;;;;;5075326;28;20024;-67
2021/05/31 00:52:05;;;;;;;5.53;4.90;;;;;;;;;;5074250;28;20021;-66
2021/05/31 00:54:31;;;;;;;6.80;5.32;;;;;;;;;;5073640;28;20070;-67
2021/05/31 00:56:56;;;;;;;6.85;5.10;;;;;;;;;;5071792;28;20033;-66
2021/05/31 00:59:22;;;;;;;5.22;4.72;;;;;;;;;;5075729;28;20028;-66
2021/05/31 01:01:48;;;;;;;4.15;3.67;;;;;;;;;;5074027;28;20074;-66
2021/05/31 01:04:14;;;;;;;3.53;3.20;;;;;;;;;;5075280;28;20096;-66
2021/05/31 01:06:40;;;;;;;4.53;3.60;;;;;;;;;;5072811;28;20420;-67
2021/05/31 01:09:11;;;;;;;4.53;3.50;;;;;;;;;;5071799;28;20035;-67
2021/05/31 01:11:55;;;;;;;3.80;3.35;;;;;;;;;;5073936;28;20023;-67
2021/05/31 01:14:21;;;;;;;4.13;3.72;;;;;;;;;;5075447;28;20073;-67
2021/05/31 01:16:49;;;;;;;5.43;4.63;;;;;;;;;;5070261;28;20021;-66
2021/05/31 01:19:42;;;;;;;7.25;4.85;;;;;;;;;;5074917;28;20017;-66
2021/05/31 01:22:09;;;;;;;6.28;4.82;;;;;;;;;;5073147;28;20020;-66
2021/05/31 01:24:47;;;;;;;7.65;5.10;;;;;;;;;;5072961;28;20016;-67
2021/05/31 01:27:21;;;;;;;6.22;4.75;;;;;;;;;;5071725;28;20020;-66
2021/05/31 01:29:55;;;;;;;5.80;5.13;;;;;;;;;;5074482;28;20258;-66
2021/05/31 01:32:28;;;;;;;5.85;4.68;;;;;;;;;;5074568;28;20032;-67
2021/05/31 01:34:53;;;;;;;4.97;4.47;;;;;;;;;;5074770;28;20017;-66
2021/05/31 01:37:22;;;;;;;7.07;4.75;;;;;;;;;;5070637;28;20494;-67
2021/05/31 01:39:50;;;;;;;5.35;4.57;;;;;;;;;;5071775;28;20071;-67
2021/05/31 01:42:16;;;;;;;5.22;4.55;;;;;;;;;;5071709;28;20048;-66
2021/05/31 01:44:43;;;;;;;5.63;4.93;;;;;;;;;;5072581;28;20590;-66
2021/05/31 01:47:09;;;;;;;5.72;4.82;;;;;;;;;;5076653;28;20104;-66
2021/05/31 01:49:35;;;;;;;5.70;4.20;;;;;;;;;;5072176;28;20044;-66
2021/05/31 01:52:00;;;;;;;5.07;4.45;;;;;;;;;;5072147;28;20058;-66
2021/05/31 01:54:26;;;;;;;5.60;4.80;;;;;;;;;;5072901;28;20041;-66
2021/05/31 01:56:52;;;;;;;5.90;4.93;;;;;;;;;;5068561;28;20051;-66
2021/05/31 01:59:18;;;;;;;5.53;5.00;;;;;;;;;;5072009;28;20028;-66
2021/05/31 02:01:43;;;;;;;6.40;4.80;;;;;;;;;;5072975;28;20024;-66
2021/05/31 02:04:08;;;;;;;6.47;4.47;;;;;;;;;;5073289;28;20112;-67
2021/05/31 02:06:34;;;;;;;6.53;4.43;;;;;;;;;;5071385;28;20020;-66
2021/05/31 02:08:59;;;;;;;4.80;3.90;;;;;;;;;;5070949;28;20021;-67
2021/05/31 02:11:30;;;;;;;5.38;4.32;;;;;;;;;;5072362;28;20432;-66
2021/05/31 02:13:58;;;;;;;5.15;4.25;;;;;;;;;;5053194;28;20384;-66
2021/05/31 02:16:25;;;;;;;5.30;4.22;;;;;;;;;;5063173;28;20024;-67
2021/05/31 02:18:50;;;;;;;4.78;3.92;;;;;;;;;;5069385;28;20495;-67
2021/05/31 02:21:17;;;;;;;5.18;4.63;;;;;;;;;;5073014;28;20012;-67
2021/05/31 02:23:43;;;;;;;5.50;5.00;;;;;;;;;;5052930;28;20017;-67
2021/05/31 02:26:15;;;;;;;5.72;5.10;;;;;;;;;;5060094;28;20020;-67
2021/05/31 02:28:41;;;;;;;6.10;5.28;;;;;;;;;;5068882;28;20102;-67
2021/05/31 02:31:09;;;;;;;4.70;3.90;;;;;;;;;;5070761;28;20440;-67
2021/05/31 02:33:35;;;;;;;6.00;4.97;;;;;;;;;;5070591;28;20081;-67
2021/05/31 02:36:01;;;;;;;5.97;5.40;;;;;;;;;;5071195;28;20080;-67
2021/05/31 02:38:27;;;;;;;5.68;5.07;;;;;;;;;;5030395;28;1104769;-67
2021/05/31 02:40:52;;;;;;;6.68;5.10;;;;;;;;;;5071962;28;20389;-67
2021/05/31 02:43:17;;;;;;;5.95;5.35;;;;;;;;;;5073660;28;20020;-67
2021/05/31 02:45:42;;;;;;;6.50;4.82;;;;;;;;;;5072543;28;20376;-67
2021/05/31 02:48:08;;;;;;;5.53;5.00;;;;;;;;;;5070474;28;20091;-67
2021/05/31 02:50:33;;;;;;;7.25;5.93;;;;;;;;;;5073592;28;20367;-67
2021/05/31 02:52:59;;;;;;;5.70;5.10;;;;;;;;;;5072637;28;20560;-67
2021/05/31 02:55:26;;;;;;;5.88;4.90;;;;;;;;;;5071798;28;20037;-67
2021/05/31 02:57:51;;;;;;;6.13;4.47;;;;;;;;;;5070143;28;20016;-67
2021/05/31 03:00:20;;;;;;;6.57;5.15;;;;;;;;;;5072756;28;20005;-67
2021/05/31 03:02:46;;;;;;;6.00;5.40;;;;;;;;;;5073044;28;20047;-67
2021/05/31 03:05:13;;;;;;;6.47;5.63;;;;;;;;;;5071822;28;20036;-67
2021/05/31 03:07:39;;;;;;;5.90;5.03;;;;;;;;;;5069293;28;20017;-67
2021/05/31 03:10:04;;;;;;;6.35;4.82;;;;;;;;;;5072789;28;20430;-67
2021/05/31 03:12:30;;;;;;;6.00;5.30;;;;;;;;;;5071009;28;20017;-67
2021/05/31 03:14:55;;;;;;;7.38;5.82;;;;;;;;;;5071947;28;20486;-67
2021/05/31 03:17:20;;;;;;;7.80;5.80;;;;;;;;;;5068121;28;20062;-67
2021/05/31 03:19:46;;;;;;;7.70;5.68;;;;;;;;;;5071810;28;20013;-67
2021/05/31 03:22:11;;;;;;;7.53;6.75;;;;;;;;;;5072508;28;20496;-67
2021/05/31 03:24:36;;;;;;;6.88;6.18;;;;;;;;;;5072048;28;20019;-67
2021/05/31 03:27:02;;;;;;;7.10;6.32;;;;;;;;;;5081259;28;20224;-67
2021/05/31 03:29:28;;;;;;;7.30;6.07;;;;;;;;;;5071558;28;20020;-67
2021/05/31 03:31:53;;;;;;;7.28;5.72;;;;;;;;;;5072383;28;20499;-67
2021/05/31 03:34:18;;;;;;;8.05;6.40;;;;;;;;;;5071043;28;20020;-67
2021/05/31 03:36:43;;;;;;;7.30;5.65;;;;;;;;;;5069249;28;20027;-67
2021/05/31 03:39:09;;;;;;;5.30;4.80;;;;;;;;;;5068111;28;20037;-67
2021/05/31 03:41:34;;;;;;;5.43;4.88;;;;;;;;;;5050900;28;20051;-67
2021/05/31 03:43:59;;;;;;;7.25;4.93;;;;;;;;;;5062168;28;20052;-66
2021/05/31 03:46:25;;;;;;;5.75;5.15;;;;;;;;;;5078630;28;20456;-67
2021/05/31 03:48:51;;;;;;;7.47;5.13;;;;;;;;;;5069480;28;20017;-67
2021/05/31 03:51:17;;;;;;;7.00;5.15;;;;;;;;;;5072305;28;20031;-67
2021/05/31 03:53:43;;;;;;;5.72;4.97;;;;;;;;;;5071782;28;20024;-67
2021/05/31 03:56:08;;;;;;;5.28;4.78;;;;;;;;;;5071693;28;20035;-67
2021/05/31 03:58:34;;;;;;;7.55;5.18;;;;;;;;;;5067665;28;20025;-67
2021/05/31 04:01:00;;;;;;;5.07;4.32;;;;;;;;;;5071929;28;20498;-67
2021/05/31 04:03:26;;;;;;;7.82;4.38;;;;;;;;;;5071893;28;20029;-67
2021/05/31 04:06:02;;;;;;;4.97;4.47;;;;;;;;;;5072342;28;20029;-67
2021/05/31 04:13:55;;;;;;;5.03;4.45;;;;;;;;;;5071663;28;20027;-67
2021/05/31 04:16:20;;;;;;;6.30;4.57;;;;;;;;;;5071610;28;20024;-67
2021/05/31 04:18:46;;;;;;;6.45;3.97;;;;;;;;;;5067804;28;20509;-67
2021/05/31 04:21:11;;;;;;;8.45;4.28;;;;;;;;;;5071724;28;20039;-67
2021/05/31 04:23:36;;;;;;;4.90;4.40;;;;;;;;;;5102818;28;20081;-67
2021/05/31 04:26:01;;;;;;;6.40;4.63;;;;;;;;;;5071579;28;20499;-67
2021/05/31 04:28:27;;;;;;;5.35;4.72;;;;;;;;;;5068296;28;20024;-67
2021/05/31 04:30:52;;;;;;;6.07;4.57;;;;;;;;;;5071891;28;20108;-67
2021/05/31 04:33:17;;;;;;;5.97;4.47;;;;;;;;;;5069879;28;20115;-67
2021/05/31 04:35:42;;;;;;;4.60;4.18;;;;;;;;;;5071187;28;20028;-65
2021/05/31 04:38:07;;;;;;;4.50;4.10;;;;;;;;;;5067347;28;20037;-67
2021/05/31 04:40:33;;;;;;;3.95;3.60;;;;;;;;;;5070193;28;20154;-67
2021/05/31 04:42:58;;;;;;;6.55;4.07;;;;;;;;;;5070434;28;20054;-67
2021/05/31 04:45:23;;;;;;;3.53;3.22;;;;;;;;;;5073527;28;20043;-67
2021/05/31 04:47:48;;;;;;;8.98;4.25;;;;;;;;;;5068581;28;20077;-67
2021/05/31 04:50:14;;;;;;;4.80;4.28;;;;;;;;;;5069811;28;20033;-67
2021/05/31 04:52:39;;;;;;;5.03;4.00;;;;;;;;;;5070725;28;20035;-65
2021/05/31 04:55:04;;;;;;;5.72;3.95;;;;;;;;;;5071217;28;20024;-65
2021/05/31 04:57:29;;;;;;;5.63;3.45;;;;;;;;;;5068227;28;20064;-67
2021/05/31 04:59:55;;;;;;;4.00;3.60;;;;;;;;;;5069601;28;20024;-67
2021/05/31 05:02:20;;;;;;;6.13;3.88;;;;;;;;;;5070837;28;20012;-66
2021/05/31 05:04:45;;;;;;;5.95;3.58;;;;;;;;;;5070967;28;20029;-66
2021/05/31 05:07:12;;;;;;;7.82;3.58;;;;;;;;;;5067029;28;20128;-65
2021/05/31 05:09:38;;;;;;;4.22;3.83;;;;;;;;;;5071059;28;20017;-66
2021/05/31 05:12:03;;;;;;;7.05;3.72;;;;;;;;;;5070949;28;20013;-67
2021/05/31 05:14:28;;;;;;;6.22;4.00;;;;;;;;;;5071148;28;20040;-67
2021/05/31 05:16:54;;;;;;;7.25;3.88;;;;;;;;;;5068122;28;20100;-65
2021/05/31 05:19:19;;;;;;;5.60;3.78;;;;;;;;;;5071736;28;20026;-67
2021/05/31 05:21:45;;;;;;;5.60;4.18;;;;;;;;;;5074320;28;20017;-67
2021/05/31 05:24:12;;;;;;;5.22;3.38;;;;;;;;;;5074809;28;20016;-66
2021/05/31 05:26:37;;;;;;;8.73;3.88;;;;;;;;;;5071705;28;20087;-67
2021/05/31 05:29:02;;;;;;;5.38;3.72;;;;;;;;;;5072653;28;20471;-67
2021/05/31 05:31:27;;;;;;;6.55;3.20;;;;;;;;;;5070667;28;20494;-66
2021/05/31 05:33:53;;;;;;;5.25;3.88;;;;;;;;;;5069736;28;20028;-67
2021/05/31 05:36:32;;;;;;;4.85;3.47;;;;;;;;;;5107472;28;20013;-67
2021/05/31 05:39:23;;;;;;;5.63;3.40;;;;;;;;;;5071432;28;20041;-67
2021/05/31 05:49:29;;;;;;;3.13;2.80;;;;;;;;;;5062992;28;20036;-66
2021/05/31 05:51:54;;;;;;;5.88;2.80;;;;;;;;;;5083506;28;20039;-66
2021/05/31 05:54:19;;;;;;;5.88;3.00;;;;;;;;;;5079363;28;20025;-66
2021/05/31 05:56:44;;;;;;;4.10;2.42;;;;;;;;;;5074854;28;20514;-67
2021/05/31 05:59:09;;;;;;;4.93;2.28;;;;;;;;;;5094435;28;20016;-66
2021/05/31 06:01:36;;;;;;;3.83;2.28;;;;;;;;;;5094216;28;20095;-66
2021/05/31 06:04:02;;;;;;;3.47;2.10;;;;;;;;;;5070044;28;20035;-66
2021/05/31 06:06:27;;;;;;;2.88;2.17;;;;;;;;;;5070689;28;20020;-66
2021/05/31 06:08:52;;;;;;;4.70;3.22;;;;;;;;;;5090678;28;20077;-67
2021/05/31 06:11:19;;;;;;;3.40;2.45;;;;;;;;;;5081030;28;20024;-67
2021/05/31 06:13:46;;;;;;;4.40;3.10;;;;;;;;;;5073770;28;20028;-67
2021/05/31 06:16:11;;;;;;;2.95;2.40;;;;;;;;;;5105798;28;20021;-67
2021/05/31 06:18:37;;;;;;;3.17;2.72;;;;;;;;;;5069029;28;20533;-67
2021/05/31 06:21:02;;;;;;;4.00;2.20;;;;;;;;;;5073761;28;20013;-67
2021/05/31 06:23:27;;;;;;;4.00;2.63;;;;;;;;;;5072197;28;20046;-67
2021/05/31 06:25:53;;;;;;;2.95;2.75;;;;;;;;;;5071629;28;20440;-67
2021/05/31 06:28:18;;;;;;;2.95;2.67;;;;;;;;;;5101277;28;20031;-65
2021/05/31 06:30:43;;;;;;;4.68;3.00;;;;;;;;;;5070912;28;20042;-67
2021/05/31 06:33:09;;;;;;;3.17;2.65;;;;;;;;;;5066188;28;20108;-67
2021/05/31 06:35:35;;;;;;;3.60;2.28;;;;;;;;;;5068896;28;20036;-67
2021/05/31 06:38:01;;;;;;;4.13;2.30;;;;;;;;;;5069053;28;20040;-67
2021/05/31 06:40:26;;;;;;;3.13;2.13;;;;;;;;;;5072994;28;20486;-67
2021/05/31 06:42:52;;;;;;;2.60;2.40;;;;;;;;;;5059193;28;20388;-67
2021/05/31 06:45:23;;;;;;;3.92;2.20;;;;;;;;;;5072492;28;20467;-67
2021/05/31 06:47:49;;;;;;;2.40;2.22;;;;;;;;;;5090806;28;20024;-67
2021/05/31 06:50:15;;;;;;;3.15;1.88;;;;;;;;;;5093129;28;20454;-67
2021/05/31 06:52:40;;;;;;;3.03;2.30;;;;;;;;;;5067667;28;20025;-68
2021/05/31 06:55:06;;;;;;;2.38;2.05;;;;;;;;;;5072754;28;20056;-67
2021/05/31 06:57:31;;;;;;;4.65;2.15;;;;;;;;;;5070067;28;20024;-67
2021/05/31 06:59:57;;;;;;;4.57;2.33;;;;;;;;;;5059331;28;20039;-65
2021/05/31 07:02:22;;;;;;;2.40;2.20;;;;;;;;;;5051985;28;20029;-66
2021/05/31 07:04:47;;;;;;;4.18;1.95;;;;;;;;;;5067342;28;20437;-66
2021/05/31 07:07:12;;;;;;;3.80;2.20;;;;;;;;;;5068407;28;20493;-65
2021/05/31 07:09:38;;;;;;;2.65;2.30;;;;;;;;;;5072871;28;20392;-66
2021/05/31 07:12:03;;;;;;;3.97;2.38;;;;;;;;;;5072789;28;20104;-66
2021/05/31 07:14:36;;;;;;;2.80;1.90;;;;;;;;;;5072264;28;20012;-67
2021/05/31 07:17:01;;;;;;;1.95;1.85;;;;;;;;;;5066765;28;20017;-67
2021/05/31 07:19:27;;;;;;;3.50;2.00;;;;;;;;;;5072547;28;20012;-67
2021/05/31 07:21:52;;;;;;;2.55;2.00;;;;;;;;;;5070212;28;20028;-67
2021/05/31 07:24:18;;;;;;;4.50;2.22;;;;;;;;;;5070473;28;20067;-66
2021/05/31 07:26:43;;;;;;;1.60;1.50;;;;;;;;;;5069319;28;20418;-67
2021/05/31 07:29:08;;;;;;;1.65;1.52;;;;;;;;;;5072254;28;20031;-66
2021/05/31 07:31:34;;;;;;;2.40;1.98;;;;;;;;;;5068616;28;20433;-66
2021/05/31 07:33:59;;;;;;;2.70;1.70;;;;;;;;;;5061351;28;20024;-66
2021/05/31 07:36:25;;;;;;;1.58;1.48;;;;;;;;;;5071837;28;20021;-66
2021/05/31 07:38:50;;;;;;;3.28;1.40;;;;;;;;;;5071045;28;20043;-67
2021/05/31 07:41:16;;;;;;;2.13;1.90;;;;;;;;;;5069437;28;20020;-67
2021/05/31 07:43:42;;;;;;;4.25;2.20;;;;;;;;;;5071078;28;20598;-67
2021/05/31 07:46:07;;;;;;;3.35;1.90;;;;;;;;;;5112704;27;20028;-67
2021/05/31 07:48:32;;;;;;;3.30;2.00;;;;;;;;;;5071946;28;20032;-67
2021/05/31 07:51:15;;;;;;;3.15;1.88;;;;;;;;;;5066212;28;20079;-67
2021/05/31 07:53:40;;;;;;;2.20;1.58;;;;;;;;;;5072192;28;20020;-66
2021/05/31 07:56:06;;;;;;;2.88;1.67;;;;;;;;;;5071710;28;20020;-66
2021/05/31 07:58:31;;;;;;;3.65;1.88;;;;;;;;;;5100432;28;20017;-66
2021/05/31 08:00:57;;;;;;;2.70;2.25;;;;;;;;;;5067879;28;20027;-66
2021/05/31 08:03:23;;;;;;;3.88;1.90;;;;;;;;;;5070706;28;20012;-66
2021/05/31 08:05:48;;;;;;;2.08;1.65;;;;;;;;;;5071883;28;20020;-66
2021/05/31 08:08:13;;;;;;;2.63;1.80;;;;;;;;;;5067991;28;20021;-65
2021/05/31 08:10:38;;;;;;;3.65;2.35;;;;;;;;;;5068142;28;20027;-66
2021/05/31 08:13:03;;;;;;;3.35;2.00;;;;;;;;;;5069265;28;20023;-66
2021/05/31 08:15:29;;;;;;;1.95;1.85;;;;;;;;;;5071417;28;20051;-66
2021/05/31 08:17:54;;;;;;;2.08;1.60;;;;;;;;;;5068969;28;20020;-66
2021/05/31 08:20:19;;;;;;;2.42;1.52;;;;;;;;;;5092291;28;20119;-67
2021/05/31 08:22:46;;;;;;;1.65;1.55;;;;;;;;;;5074674;28;20142;-66
2021/05/31 08:25:12;;;;;;;1.23;1.13;;;;;;;;;;5069215;28;20027;-67
2021/05/31 08:27:37;;;;;;;1.17;1.08;;;;;;;;;;5067320;28;20017;-66
2021/05/31 08:30:04;;;;;;;1.40;1.30;;;;;;;;;;5070283;28;20521;-66
2021/05/31 08:32:29;;;;;;;1.25;1.15;;;;;;;;;;5071262;28;20020;-66
2021/05/31 08:34:56;;;;;;;2.00;1.40;;;;;;;;;;5069890;28;20126;-66
2021/05/31 08:37:22;;;;;;;1.17;1.08;;;;;;;;;;5066904;28;20495;-66
2021/05/31 08:39:48;;;;;;;1.10;1.00;;;;;;;;;;5078743;28;20127;-66
2021/05/31 08:42:13;;;;;;;1.60;0.90;;;;;;;;;;5070057;28;20443;-66
2021/05/31 08:44:39;;;;;;;1.60;1.30;;;;;;;;;;5070490;28;20016;-66
2021/05/31 08:47:04;;;;;;;3.45;1.30;;;;;;;;;;5072503;28;20484;-66
2021/05/31 08:49:29;;;;;;;1.58;1.13;;;;;;;;;;5069445;28;20024;-66
2021/05/31 08:51:55;;;;;;;1.90;1.10;;;;;;;;;;5058421;28;20032;-66
2021/05/31 08:54:20;;;;;;;1.55;0.80;;;;;;;;;;5071523;28;20031;-67
2021/05/31 08:56:45;;;;;;;1.05;1.00;;;;;;;;;;5068185;28;20025;-66
2021/05/31 08:59:10;;;;;;;1.67;1.10;;;;;;;;;;5056468;28;20017;-66
2021/05/31 09:01:36;;;;;;;1.45;0.90;;;;;;;;;;5055240;28;20028;-66
2021/05/31 09:04:01;;;;;;;2.35;1.13;;;;;;;;;;5072954;28;20025;-67
2021/05/31 09:06:27;;;;;;;1.52;0.80;;;;;;;;;;5067134;28;20009;-66
2021/05/31 09:08:52;;;;;;;1.52;1.02;;;;;;;;;;5065311;28;20023;-67
2021/05/31 09:11:20;;;;;;;1.50;0.70;;;;;;;;;;5074722;28;20051;-66
2021/05/31 09:13:45;;;;;;;2.13;1.67;;;;;;;;;;5073067;28;20028;-67
2021/05/31 09:16:13;;;;;;;2.67;2.10;;;;;;;;;;5064930;28;20021;-67
2021/05/31 09:18:39;;;;;;;1.02;0.93;;;;;;;;;;5072131;28;20028;-67
2021/05/31 09:21:11;;;;;;;1.45;0.82;;;;;;;;;;5074115;28;20016;-67
2021/05/31 09:23:36;;;;;;;3.30;1.40;;;;;;;;;;5107261;28;20400;-67
2021/05/31 09:26:03;;;;;;;2.30;0.90;;;;;;;;;;5074507;28;20104;-67
2021/05/31 09:28:28;;;;;;;0.80;0.77;;;;;;;;;;5102739;27;20043;-67
2021/05/31 09:30:53;;;;;;;1.88;0.80;;;;;;;;;;5074504;28;20482;-67
2021/05/31 09:33:18;;;;;;;3.65;0.95;;;;;;;;;;5087310;28;20048;-67
2021/05/31 09:35:44;;;;;;;1.80;1.00;;;;;;;;;;5072912;28;20058;-67
2021/05/31 09:38:13;;;;;;;1.13;0.85;;;;;;;;;;5070210;28;20364;-66
2021/05/31 09:40:38;;;;;;;1.30;0.60;;;;;;;;;;5072720;28;20016;-67
2021/05/31 09:43:05;;;;;;;1.88;0.80;;;;;;;;;;5073595;28;20147;-67
2021/05/31 09:45:30;;;;;;;1.67;0.90;;;;;;;;;;5070128;28;20039;-67
2021/05/31 09:48:00;;;;;;;1.73;0.90;;;;;;;;;;5070870;28;20024;-67
2021/05/31 09:50:26;;;;;;;1.25;1.10;;;;;;;;;;5072653;28;20024;-67
2021/05/31 09:53:01;;;;;;;1.70;1.23;;;;;;;;;;5072629;28;20055;-66
2021/05/31 09:55:30;;;;;;;0.85;0.77;;;;;;;;;;5071933;28;20099;-67
2021/05/31 09:57:55;;;;;;;2.75;1.20;;;;;;;;;;5068733;28;20067;-66
2021/05/31 10:00:23;;;;;;;1.63;0.70;;;;;;;;;;5073671;28;20055;-67
2021/05/31 10:03:11;;;;;;;1.30;0.85;;;;;;;;;;5061774;28;20021;-66
2021/05/31 10:08:40;;;;;;;2.17;1.10;;;;;;;;;;5060382;28;20035;-65
2021/05/31 10:10:51;;;;;;;1.33;1.15;;;;;;;;;;5066697;28;20442;-65
2021/05/31 10:13:17;;;;;;;1.48;1.38;;;;;;;;;;5066467;28;20155;-66
2021/05/31 10:15:43;;;;;;;2.58;1.65;;;;;;;;;;5062587;28;20527;-65
2021/05/31 10:18:10;;;;;;;4.55;1.50;;;;;;;;;;5062085;28;20023;-65
2021/05/31 10:20:37;;;;;;;1.90;1.70;;;;;;;;;;5069597;28;20027;-66
2021/05/31 10:23:03;;;;;;;2.42;1.30;;;;;;;;;;5071339;28;20025;-66
2021/05/31 10:25:30;;;;;;;2.25;1.77;;;;;;;;;;5070790;28;20411;-66
2021/05/31 10:27:56;;;;;;;3.60;1.67;;;;;;;;;;5066833;28;20395;-68
2021/05/31 10:30:21;;;;;;;2.72;1.70;;;;;;;;;;5070023;28;20107;-67
2021/05/31 10:32:47;;;;;;;1.98;1.80;;;;;;;;;;5068936;28;20177;-67
2021/05/31 10:35:14;;;;;;;1.92;1.65;;;;;;;;;;5071239;28;20583;-66
2021/05/31 10:37:39;;;;;;;2.35;1.55;;;;;;;;;;5068952;28;20020;-66
2021/05/31 10:40:05;;;;;;;6.40;2.17;;;;;;;;;;5060506;28;20023;-66
2021/05/31 10:42:42;;;;;;;2.13;0.95;;;;;;;;;;5068541;28;20017;-66
2021/05/31 10:45:16;;;;;;;1.65;1.40;;;;;;;;;;5069684;28;20048;-66
2021/05/31 10:47:41;;;;;;;3.15;1.33;;;;;;;;;;5067570;28;20016;-66
2021/05/31 10:50:14;;;;;;;1.42;0.98;;;;;;;;;;5070741;28;20365;-66
2021/05/31 10:52:48;;;;;;;1.05;0.95;;;;;;;;;;5068154;28;20016;-66
2021/05/31 10:55:14;;;;;;;;;;;;;;;;;;5070498;28;20105;-66
2021/05/31 10:57:39;;;;;;;;;;;;;;;;;;5068824;28;19942;-66
2021/05/31 11:00:04;;;;;;;;;;;;;;;;;;5070726;28;19952;-66
2021/05/31 11:02:29;;;;;;;10.77;2.92;;;;;;;;;;5066188;28;19974;-66
2021/05/31 11:05:10;;;;;;;1.13;0.60;;;;;;;;;;5064038;28;20047;-66
2021/05/31 11:07:35;;;;;;;4.70;1.40;;;;;;;;;;5061637;28;20266;-66
2021/05/31 11:10:00;;;;;;;12.02;3.03;;;;;;;;;;5065783;28;20013;-66
2021/05/31 11:12:32;;;;;;;2.42;1.17;;;;;;;;;;5063943;28;20095;-66
2021/05/31 11:15:05;;;;;;;5.85;1.83;;;;;;;;;;5065284;28;20013;-66
2021/05/31 11:17:30;;;;;;;2.25;0.90;;;;;;;;;;5061874;28;20080;-66
2021/05/31 11:19:55;;;;;;;2.90;0.60;;;;;;;;;;5094400;28;20044;-66
2021/05/31 11:22:22;;;;;;;1.17;0.70;;;;;;;;;;5064828;28;20367;-65
2021/05/31 11:24:58;;;;;;;1.42;0.77;;;;;;;;;;5072105;28;20312;-66
2021/05/31 11:27:25;;;;;;;1.38;0.70;;;;;;;;;;5061479;28;20008;-65
2021/05/31 11:29:50;;;;;;;0.80;0.57;;;;;;;;;;5064454;28;20028;-65
2021/05/31 11:32:17;;;;;;;1.17;0.60;;;;;;;;;;5062876;28;20499;-66
2021/05/31 11:34:51;;;;;;;1.00;0.60;;;;;;;;;;5063080;28;20020;-65
2021/05/31 11:37:20;;;;;;;0.90;0.60;;;;;;;;;;5059823;28;20020;-65
2021/05/31 11:39:45;;;;;;;2.17;0.50;;;;;;;;;;5063667;28;20040;-66
2021/05/31 11:42:12;;;;;;;1.70;0.67;;;;;;;;;;5095882;27;20020;-65
2021/05/31 11:44:38;;;;;;;1.83;0.68;;;;;;;;;;5094578;27;20756;-65
2021/05/31 11:47:03;;;;;;;1.42;0.40;;;;;;;;;;5062164;28;20022;-65
2021/05/31 11:49:30;;;;;;;1.90;0.60;;;;;;;;;;5063757;28;20375;-65
2021/05/31 11:51:55;;;;;;;2.42;0.57;;;;;;;;;;5062748;28;20262;-66
2021/05/31 11:54:21;;;;;;;1.63;0.80;;;;;;;;;;5065392;28;20074;-66
2021/05/31 11:56:46;;;;;;;1.50;0.50;;;;;;;;;;5062869;28;20439;-65
2021/05/31 11:59:14;;;;;;;1.20;0.60;;;;;;;;;;5066692;28;20480;-65
2021/05/31 12:01:39;;;;;;;3.30;0.47;;;;;;;;;;5063772;28;20082;-65
2021/05/31 12:04:05;;;;;;;0.67;0.40;;;;;;;;;;5098411;28;20017;-65
2021/05/31 12:06:30;;;;;;;1.43;0.47;;;;;;;;;;5062759;28;20009;-65
2021/05/31 12:08:55;;;;;;;1.20;0.70;;;;;;;;;;5061146;28;20275;-65
2021/05/31 12:11:21;;;;;;;1.63;0.80;;;;;;;;;;5063455;28;20016;-65
2021/05/31 12:13:47;;;;;;;1.05;0.52;;;;;;;;;;5063094;28;20029;-65
2021/05/31 12:16:13;;;;;;;1.20;0.70;;;;;;;;;;5062116;28;20125;-66
2021/05/31 12:18:38;;;;;;;1.50;0.63;;;;;;;;;;5059825;28;20700;-66
2021/05/31 12:21:03;;;;;;;0.70;0.60;;;;;;;;;;5097004;28;20082;-66
2021/05/31 12:23:29;;;;;;;2.85;0.70;;;;;;;;;;5064146;28;20021;-66
2021/05/31 12:26:01;;;;;;;0.80;0.50;;;;;;;;;;5064608;28;20052;-66
2021/05/31 12:28:29;;;;;;;2.42;1.20;;;;;;;;;;5063092;28;20302;-65
2021/05/31 12:30:54;;;;;;;3.58;1.00;;;;;;;;;;5064354;28;20029;-66
2021/05/31 12:33:20;;;;;;;1.60;0.90;;;;;;;;;;5068344;28;20357;-66
2021/05/31 12:35:46;;;;;;;0.60;0.60;;;;;;;;;;5066508;28;20043;-66
2021/05/31 12:38:11;;;;;;;0.80;0.50;;;;;;;;;;5073348;28;20295;-64
2021/05/31 12:40:38;;;;;;;0.60;0.50;;;;;;;;;;5075606;28;20023;-66
2021/05/31 12:43:04;;;;;;;0.65;0.60;;;;;;;;;;5075189;28;20016;-66
2021/05/31 12:45:29;;;;;;;1.30;0.73;;;;;;;;;;5075970;28;20356;-66
2021/05/31 12:47:55;;;;;;;0.95;0.60;;;;;;;;;;5072843;28;20021;-64
2021/05/31 12:50:20;;;;;;;0.57;0.50;;;;;;;;;;5075748;28;20479;-68
2021/05/31 12:52:46;;;;;;;1.13;0.60;;;;;;;;;;5073517;28;20517;-66
2021/05/31 12:55:16;;;;;;;0.60;0.60;;;;;;;;;;5075605;28;20647;-65
2021/05/31 12:57:48;;;;;;;0.70;0.70;;;;;;;;;;5073241;28;20019;-66
2021/05/31 13:00:18;;;;;;;1.35;0.50;;;;;;;;;;5079926;28;20107;-66
2021/05/31 13:02:44;;;;;;;1.85;0.75;;;;;;;;;;5076138;28;20058;-65
2021/05/31 13:05:12;;;;;;;0.88;0.60;;;;;;;;;;5073918;28;20031;-66
2021/05/31 13:07:37;;;;;;;1.00;0.60;;;;;;;;;;5072761;28;20032;-67
2021/05/31 13:10:13;;;;;;;1.77;0.88;;;;;;;;;;5073307;28;20035;-67
2021/05/31 13:12:48;;;;;;;0.82;0.75;;;;;;;;;;5074829;28;20472;-67
2021/05/31 13:15:14;;;;;;;0.57;0.50;;;;;;;;;;5074754;28;20475;-67
2021/05/31 13:17:39;;;;;;;0.80;0.63;;;;;;;;;;5072679;28;20091;-66
2021/05/31 13:20:09;;;;;;;1.40;0.63;;;;;;;;;;5074978;28;20023;-67
2021/05/31 13:22:34;;;;;;;1.00;0.60;;;;;;;;;;5072807;28;20282;-66
2021/05/31 13:25:00;;;;;;;2.07;0.70;;;;;;;;;;5074080;28;20059;-66
2021/05/31 13:27:31;;;;;;;1.67;0.80;;;;;;;;;;5066237;28;20275;-67
2021/05/31 13:30:03;;;;;;;0.95;0.50;;;;;;;;;;5072874;28;20081;-67
2021/05/31 13:32:28;;;;;;;1.45;0.70;;;;;;;;;;5066490;28;20025;-66
2021/05/31 13:34:58;;;;;;;2.15;0.77;;;;;;;;;;5073485;28;20525;-66
2021/05/31 13:37:23;;;;;;;2.15;0.60;;;;;;;;;;5069682;28;20021;-67
2021/05/31 13:39:52;;;;;;;0.67;0.50;;;;;;;;;;5105001;28;20060;-67
2021/05/31 13:42:18;;;;;;;1.13;0.70;;;;;;;;;;5072670;28;20073;-67
2021/05/31 13:44:43;;;;;;;1.13;0.50;;;;;;;;;;5072053;28;20433;-67
2021/05/31 13:47:09;;;;;;;0.90;0.70;;;;;;;;;;5069559;28;20033;-67
2021/05/31 13:49:34;;;;;;;0.95;0.43;;;;;;;;;;5068936;28;20021;-67
2021/05/31 13:51:59;;;;;;;3.20;0.63;;;;;;;;;;5065022;28;20021;-67
2021/05/31 13:54:25;;;;;;;1.17;0.53;;;;;;;;;;5070596;28;20519;-67
2021/05/31 13:56:50;;;;;;;0.68;0.40;;;;;;;;;;5070452;28;20642;-67
2021/05/31 13:59:15;;;;;;;1.67;0.45;;;;;;;;;;5072511;28;20020;-67
2021/05/31 14:01:41;;;;;;;1.40;0.60;;;;;;;;;;5073599;28;20131;-67
2021/05/31 14:04:06;;;;;;;1.33;0.50;;;;;;;;;;5072704;28;20312;-67
2021/05/31 14:06:31;;;;;;;1.67;0.50;;;;;;;;;;5073612;28;20270;-67
2021/05/31 14:08:59;;;;;;;2.20;0.50;;;;;;;;;;5072752;28;20025;-67
2021/05/31 14:11:25;;;;;;;2.03;0.77;;;;;;;;;;5072269;28;20074;-68
2021/05/31 14:13:50;;;;;;;1.20;0.52;;;;;;;;;;5073729;28;20020;-68
2021/05/31 14:16:15;;;;;;;2.63;0.40;;;;;;;;;;5074178;28;20074;-68
2021/05/31 14:18:42;;;;;;;0.70;0.53;;;;;;;;;;5072162;28;20024;-67
2021/05/31 14:21:07;;;;;;;0.65;0.40;;;;;;;;;;5074124;28;20265;-68
2021/05/31 14:23:33;;;;;;;0.75;0.50;;;;;;;;;;5072310;28;20017;-68
2021/05/31 14:25:58;;;;;;;1.00;0.60;;;;;;;;;;5073920;28;20029;-68
2021/05/31 14:28:23;;;;;;;0.90;0.60;;;;;;;;;;5071347;28;20266;-68
2021/05/31 14:30:48;;;;;;;0.90;0.60;;;;;;;;;;5074232;28;20259;-66
2021/05/31 14:33:16;;;;;;;0.80;0.80;;;;;;;;;;5074002;28;20047;-66
2021/05/31 14:35:41;;;;;;;1.33;0.50;;;;;;;;;;5072611;28;20028;-67
2021/05/31 14:38:06;;;;;;;0.75;0.50;;;;;;;;;;5071013;28;20048;-68
2021/05/31 14:40:32;;;;;;;0.60;0.50;;;;;;;;;;5089048;28;20039;-71
2021/05/31 14:43:00;;;;;;;1.27;0.50;;;;;;;;;;5074379;28;20690;-65
2021/05/31 14:45:26;;;;;;;2.20;0.43;;;;;;;;;;5073742;28;20016;-66
2021/05/31 14:47:51;;;;;;;0.98;0.40;;;;;;;;;;5069034;28;20494;-66
2021/05/31 14:50:17;;;;;;;1.75;0.60;;;;;;;;;;5073422;28;20107;-66
2021/05/31 14:52:42;;;;;;;1.35;0.40;;;;;;;;;;5067768;28;20024;-66
2021/05/31 14:55:09;;;;;;;1.80;0.40;;;;;;;;;;5064525;28;20027;-66